sensor_id;sensor_type;location;lat;lon;timestamp;pressure;altitude;pressure_sealevel;temperature;humidity
50550;BME280;36505;52.512;13.460;2023-01-27T00:00:19;101694.09;;;0.69;87.00
50550;BME280;36505;52.512;13.460;2023-01-27T00:02:44;101699.69;;;0.67;86.96
50550;BME280;36505;52.512;13.460;2023-01-27T00:05:11;101695.81;;;0.70;87.18
50550;BME280;36505;52.512;13.460;2023-01-27T00:07:37;101687.28;;;0.74;86.96
50550;BME280;36505;52.512;13.460;2023-01-27T00:10:04;101690.75;;;0.67;86.91
50550;BME280;36505;52.512;13.460;2023-01-27T00:12:30;101676.56;;;0.65;87.35
50550;BME280;36505;52.512;13.460;2023-01-27T00:15:15;101689.75;;;0.68;87.10
50550;BME280;36505;52.512;13.460;2023-01-27T00:17:41;101690.75;;;0.67;87.07
50550;BME280;36505;52.512;13.460;2023-01-27T00:20:08;101696.66;;;0.70;87.15
50550;BME280;36505;52.512;13.460;2023-01-27T00:22:34;101685.16;;;0.68;86.77
50550;BME280;36505;52.512;13.460;2023-01-27T00:25:18;101687.88;;;0.68;87.02
50550;BME280;36505;52.512;13.460;2023-01-27T00:27:43;101680.25;;;0.64;87.15
50550;BME280;36505;52.512;13.460;2023-01-27T00:30:10;101683.81;;;0.64;87.17
50550;BME280;36505;52.512;13.460;2023-01-27T00:32:35;101684.81;;;0.63;87.38
50550;BME280;36505;52.512;13.460;2023-01-27T00:35:19;101678.69;;;0.53;87.10
50550;BME280;36505;52.512;13.460;2023-01-27T00:37:45;101682.53;;;0.51;87.49
50550;BME280;36505;52.512;13.460;2023-01-27T00:40:12;101683.00;;;0.46;88.10
50550;BME280;36505;52.512;13.460;2023-01-27T00:42:38;101680.59;;;0.43;88.21
50550;BME280;36505;52.512;13.460;2023-01-27T00:45:04;101688.47;;;0.54;88.01
50550;BME280;36505;52.512;13.460;2023-01-27T00:47:48;101684.38;;;0.50;88.07
50550;BME280;36505;52.512;13.460;2023-01-27T00:50:14;101684.84;;;0.46;88.20
50550;BME280;36505;52.512;13.460;2023-01-27T00:52:40;101689.91;;;0.49;88.38
50550;BME280;36505;52.512;13.460;2023-01-27T00:55:06;101697.53;;;0.53;88.23
50550;BME280;36505;52.512;13.460;2023-01-27T00:57:32;101692.16;;;0.53;88.18
50550;BME280;36505;52.512;13.460;2023-01-27T00:59:57;101693.84;;;0.54;87.98
50550;BME280;36505;52.512;13.460;2023-01-27T01:02:22;101691.31;;;0.53;88.11
50550;BME280;36505;52.512;13.460;2023-01-27T01:04:48;101680.75;;;0.42;88.27
50550;BME280;36505;52.512;13.460;2023-01-27T01:07:13;101699.84;;;0.48;88.24
50550;BME280;36505;52.512;13.460;2023-01-27T01:09:39;101694.31;;;0.50;88.18
50550;BME280;36505;52.512;13.460;2023-01-27T01:12:04;101702.75;;;0.55;88.45
50550;BME280;36505;52.512;13.460;2023-01-27T01:14:29;101703.44;;;0.57;88.57
50550;BME280;36505;52.512;13.460;2023-01-27T01:16:55;101704.31;;;0.57;88.60
50550;BME280;36505;52.512;13.460;2023-01-27T01:19:21;101706.28;;;0.55;88.71
50550;BME280;36505;52.512;13.460;2023-01-27T01:21:47;101701.75;;;0.56;89.06
50550;BME280;36505;52.512;13.460;2023-01-27T01:24:12;101697.69;;;0.52;89.05
50550;BME280;36505;52.512;13.460;2023-01-27T01:26:38;101705.53;;;0.63;88.58
50550;BME280;36505;52.512;13.460;2023-01-27T01:29:03;101706.69;;;0.60;88.62
50550;BME280;36505;52.512;13.460;2023-01-27T01:31:29;101711.53;;;0.57;89.03
50550;BME280;36505;52.512;13.460;2023-01-27T01:33:54;101704.78;;;0.53;88.72
50550;BME280;36505;52.512;13.460;2023-01-27T01:36:20;101718.09;;;0.54;88.42
50550;BME280;36505;52.512;13.460;2023-01-27T01:38:46;101717.69;;;0.49;88.48
50550;BME280;36505;52.512;13.460;2023-01-27T01:41:17;101715.00;;;0.49;88.43
50550;BME280;36505;52.512;13.460;2023-01-27T01:43:43;101716.81;;;0.41;89.01
50550;BME280;36505;52.512;13.460;2023-01-27T01:46:10;101718.25;;;0.35;89.03
50550;BME280;36505;52.512;13.460;2023-01-27T01:51:19;101727.50;;;0.32;89.03
50550;BME280;36505;52.512;13.460;2023-01-27T01:54:18;101727.50;;;0.32;89.02
50550;BME280;36505;52.512;13.460;2023-01-27T01:57:09;101720.78;;;0.36;88.86
50550;BME280;36505;52.512;13.460;2023-01-27T01:59:44;101719.66;;;0.39;88.79
50550;BME280;36505;52.512;13.460;2023-01-27T02:02:13;101727.25;;;0.44;88.45
50550;BME280;36505;52.512;13.460;2023-01-27T02:05:03;101730.66;;;0.46;88.33
50550;BME280;36505;52.512;13.460;2023-01-27T02:07:33;101730.81;;;0.44;87.89
50550;BME280;36505;52.512;13.460;2023-01-27T02:10:01;101720.72;;;0.46;88.05
50550;BME280;36505;52.512;13.460;2023-01-27T02:12:27;101725.13;;;0.47;88.01
50550;BME280;36505;52.512;13.460;2023-01-27T02:14:53;101715.00;;;0.49;87.96
50550;BME280;36505;52.512;13.460;2023-01-27T02:17:18;101722.66;;;0.54;87.46
50550;BME280;36505;52.512;13.460;2023-01-27T02:19:56;101724.00;;;0.58;87.01
50550;BME280;36505;52.512;13.460;2023-01-27T02:22:39;101718.69;;;0.48;86.71
50550;BME280;36505;52.512;13.460;2023-01-27T02:25:17;101723.00;;;0.41;87.36
50550;BME280;36505;52.512;13.460;2023-01-27T02:27:44;101721.88;;;0.44;87.57
50550;BME280;36505;52.512;13.460;2023-01-27T02:30:09;101717.34;;;0.44;87.24
50550;BME280;36505;52.512;13.460;2023-01-27T02:32:35;101716.47;;;0.44;87.39
50550;BME280;36505;52.512;13.460;2023-01-27T02:35:00;101714.34;;;0.47;87.21
50550;BME280;36505;52.512;13.460;2023-01-27T02:37:27;101713.16;;;0.50;87.44
50550;BME280;36505;52.512;13.460;2023-01-27T02:39:56;101710.63;;;0.48;87.62
50550;BME280;36505;52.512;13.460;2023-01-27T02:42:22;101719.63;;;0.57;87.20
50550;BME280;36505;52.512;13.460;2023-01-27T02:44:48;101719.63;;;0.57;87.03
50550;BME280;36505;52.512;13.460;2023-01-27T02:47:14;101720.47;;;0.57;87.43
50550;BME280;36505;52.512;13.460;2023-01-27T02:49:39;101718.31;;;0.61;86.99
50550;BME280;36505;52.512;13.460;2023-01-27T02:52:05;101724.56;;;0.61;87.13
50550;BME280;36505;52.512;13.460;2023-01-27T02:54:30;101727.09;;;0.63;87.15
50550;BME280;36505;52.512;13.460;2023-01-27T02:56:55;101731.63;;;0.62;87.10
50550;BME280;36505;52.512;13.460;2023-01-27T02:59:21;101737.34;;;0.59;86.98
50550;BME280;36505;52.512;13.460;2023-01-27T03:01:46;101743.44;;;0.61;87.05
50550;BME280;36505;52.512;13.460;2023-01-27T03:04:12;101744.44;;;0.60;86.72
50550;BME280;36505;52.512;13.460;2023-01-27T03:06:39;101744.59;;;0.59;87.15
50550;BME280;36505;52.512;13.460;2023-01-27T03:09:05;101752.19;;;0.63;86.97
50550;BME280;36505;52.512;13.460;2023-01-27T03:11:31;101743.25;;;0.63;87.33
50550;BME280;36505;52.512;13.460;2023-01-27T03:14:14;101752.03;;;0.65;87.07
50550;BME280;36505;52.512;13.460;2023-01-27T03:16:40;101735.72;;;0.66;87.11
50550;BME280;36505;52.512;13.460;2023-01-27T03:19:24;101734.72;;;0.67;87.04
50550;BME280;36505;52.512;13.460;2023-01-27T03:21:52;101729.34;;;0.67;87.20
50550;BME280;36505;52.512;13.460;2023-01-27T03:24:17;101739.09;;;0.68;87.24
50550;BME280;36505;52.512;13.460;2023-01-27T03:26:43;101738.09;;;0.69;87.20
50550;BME280;36505;52.512;13.460;2023-01-27T03:29:08;101735.25;;;0.71;86.95
50550;BME280;36505;52.512;13.460;2023-01-27T03:31:52;101734.09;;;0.73;87.14
50550;BME280;36505;52.512;13.460;2023-01-27T03:34:17;101736.31;;;0.78;86.70
50550;BME280;36505;52.512;13.460;2023-01-27T03:36:43;101740.84;;;0.77;86.83
50550;BME280;36505;52.512;13.460;2023-01-27T03:39:28;101737.00;;;0.80;86.82
50550;BME280;36505;52.512;13.460;2023-01-27T03:42:13;101733.75;;;0.76;86.98
50550;BME280;36505;52.512;13.460;2023-01-27T03:44:57;101737.84;;;0.81;86.97
50550;BME280;36505;52.512;13.460;2023-01-27T03:47:41;101739.72;;;0.80;87.11
50550;BME280;36505;52.512;13.460;2023-01-27T03:50:07;101743.25;;;0.81;87.15
50550;BME280;36505;52.512;13.460;2023-01-27T03:52:38;101742.78;;;0.85;87.19
50550;BME280;36505;52.512;13.460;2023-01-27T03:55:03;101741.78;;;0.86;87.03
50550;BME280;36505;52.512;13.460;2023-01-27T03:57:29;101736.75;;;0.91;86.97
50550;BME280;36505;52.512;13.460;2023-01-27T03:59:54;101745.31;;;0.87;87.16
50550;BME280;36505;52.512;13.460;2023-01-27T04:02:20;101730.84;;;0.88;87.25
50550;BME280;36505;52.512;13.460;2023-01-27T04:05:04;101745.38;;;0.95;86.91
50550;BME280;36505;52.512;13.460;2023-01-27T04:07:48;101743.19;;;0.98;86.98
50550;BME280;36505;52.512;13.460;2023-01-27T04:10:14;101737.66;;;1.00;86.95
50550;BME280;36505;52.512;13.460;2023-01-27T04:12:39;101738.50;;;1.00;86.85
50550;BME280;36505;52.512;13.460;2023-01-27T04:15:05;101748.28;;;1.01;86.98
50550;BME280;36505;52.512;13.460;2023-01-27T04:17:31;101740.88;;;1.03;86.87
50550;BME280;36505;52.512;13.460;2023-01-27T04:20:03;101741.41;;;1.07;86.66
50550;BME280;36505;52.512;13.460;2023-01-27T04:22:29;101735.03;;;1.08;86.60
50550;BME280;36505;52.512;13.460;2023-01-27T04:24:54;101746.66;;;1.08;86.32
50550;BME280;36505;52.512;13.460;2023-01-27T04:27:19;101743.47;;;1.13;86.41
50550;BME280;36505;52.512;13.460;2023-01-27T04:29:45;101753.25;;;1.14;86.34
50550;BME280;36505;52.512;13.460;2023-01-27T04:32:11;101748.72;;;1.14;86.06
50550;BME280;36505;52.512;13.460;2023-01-27T04:34:37;101747.16;;;1.12;86.09
50550;BME280;36505;52.512;13.460;2023-01-27T04:37:03;101758.13;;;1.10;86.27
50550;BME280;36505;52.512;13.460;2023-01-27T04:39:30;101755.13;;;1.13;86.31
50550;BME280;36505;52.512;13.460;2023-01-27T04:41:56;101747.03;;;1.13;86.45
50550;BME280;36505;52.512;13.460;2023-01-27T04:44:21;101757.66;;;1.15;86.81
50550;BME280;36505;52.512;13.460;2023-01-27T04:46:47;101760.88;;;1.18;86.50
50550;BME280;36505;52.512;13.460;2023-01-27T04:49:13;101758.50;;;1.15;86.35
50550;BME280;36505;52.512;13.460;2023-01-27T04:51:39;101760.34;;;1.15;86.55
50550;BME280;36505;52.512;13.460;2023-01-27T04:54:04;101753.13;;;1.15;86.53
50550;BME280;36505;52.512;13.460;2023-01-27T04:56:34;101751.94;;;1.18;86.61
50550;BME280;36505;52.512;13.460;2023-01-27T04:59:01;101752.09;;;1.16;86.60
50550;BME280;36505;52.512;13.460;2023-01-27T05:01:27;101757.47;;;1.16;86.50
50550;BME280;36505;52.512;13.460;2023-01-27T05:03:53;101763.09;;;1.23;86.66
50550;BME280;36505;52.512;13.460;2023-01-27T05:06:19;101762.63;;;1.28;86.00
50550;BME280;36505;52.512;13.460;2023-01-27T05:08:44;101765.78;;;1.23;86.42
50550;BME280;36505;52.512;13.460;2023-01-27T05:11:10;101768.31;;;1.25;86.43
50550;BME280;36505;52.512;13.460;2023-01-27T05:13:36;101767.13;;;1.19;86.47
50550;BME280;36505;52.512;13.460;2023-01-27T05:16:21;101778.97;;;1.26;86.44
50550;BME280;36505;52.512;13.460;2023-01-27T05:18:49;101784.06;;;1.29;86.28
50550;BME280;36505;52.512;13.460;2023-01-27T05:21:18;101780.50;;;1.29;86.38
50550;BME280;36505;52.512;13.460;2023-01-27T05:23:44;101781.66;;;1.26;86.56
50550;BME280;36505;52.512;13.460;2023-01-27T05:26:12;101786.44;;;1.32;86.38
50550;BME280;36505;52.512;13.460;2023-01-27T05:28:43;101788.13;;;1.33;86.37
50550;BME280;36505;52.512;13.460;2023-01-27T05:31:11;101789.13;;;1.32;86.16
50550;BME280;36505;52.512;13.460;2023-01-27T05:33:38;101790.66;;;1.35;86.08
50550;BME280;36505;52.512;13.460;2023-01-27T05:36:05;101793.66;;;1.32;86.37
50550;BME280;36505;52.512;13.460;2023-01-27T05:38:31;101797.22;;;1.32;86.54
50550;BME280;36505;52.512;13.460;2023-01-27T05:40:59;101804.16;;;1.35;86.36
50550;BME280;36505;52.512;13.460;2023-01-27T05:43:27;101793.53;;;1.33;86.28
50550;BME280;36505;52.512;13.460;2023-01-27T05:45:52;101798.75;;;1.35;86.60
50550;BME280;36505;52.512;13.460;2023-01-27T05:48:18;101797.75;;;1.36;86.52
50550;BME280;36505;52.512;13.460;2023-01-27T05:50:53;101796.72;;;1.37;86.92
50550;BME280;36505;52.512;13.460;2023-01-27T05:53:18;101800.63;;;1.34;87.15
50550;BME280;36505;52.512;13.460;2023-01-27T05:55:44;101795.06;;;1.36;87.21
50550;BME280;36505;52.512;13.460;2023-01-27T05:58:09;101798.28;;;1.39;87.49
50550;BME280;36505;52.512;13.460;2023-01-27T06:00:34;101802.81;;;1.39;87.57
50550;BME280;36505;52.512;13.460;2023-01-27T06:03:00;101795.91;;;1.36;88.21
50550;BME280;36505;52.512;13.460;2023-01-27T06:05:25;101801.63;;;1.33;88.22
50550;BME280;36505;52.512;13.460;2023-01-27T06:07:50;101802.47;;;1.34;88.31
50550;BME280;36505;52.512;13.460;2023-01-27T06:10:16;101801.63;;;1.33;88.49
50550;BME280;36505;52.512;13.460;2023-01-27T06:12:42;101803.63;;;1.31;88.87
50550;BME280;36505;52.512;13.460;2023-01-27T06:15:07;101806.16;;;1.33;89.02
50550;BME280;36505;52.512;13.460;2023-01-27T06:17:33;101796.91;;;1.35;88.97
50550;BME280;36505;52.512;13.460;2023-01-27T06:19:58;101793.22;;;1.36;89.20
50550;BME280;36505;52.512;13.460;2023-01-27T06:22:24;101790.19;;;1.39;89.13
50550;BME280;36505;52.512;13.460;2023-01-27T06:24:49;101796.44;;;1.40;89.76
50550;BME280;36505;52.512;13.460;2023-01-27T06:27:14;101791.66;;;1.34;89.90
50550;BME280;36505;52.512;13.460;2023-01-27T06:29:40;101797.38;;;1.31;89.96
50550;BME280;36505;52.512;13.460;2023-01-27T06:32:05;101806.16;;;1.33;90.21
50550;BME280;36505;52.512;13.460;2023-01-27T06:34:30;101801.47;;;1.35;90.45
50550;BME280;36505;52.512;13.460;2023-01-27T06:36:56;101795.06;;;1.36;90.58
50550;BME280;36505;52.512;13.460;2023-01-27T06:39:21;101807.88;;;1.34;90.43
50550;BME280;36505;52.512;13.460;2023-01-27T06:41:48;101809.56;;;1.35;90.66
50550;BME280;36505;52.512;13.460;2023-01-27T06:44:13;101815.47;;;1.38;90.85
50550;BME280;36505;52.512;13.460;2023-01-27T06:46:39;101807.53;;;1.37;91.09
50550;BME280;36505;52.512;13.460;2023-01-27T06:49:05;101819.03;;;1.39;91.26
50550;BME280;36505;52.512;13.460;2023-01-27T06:51:30;101813.63;;;1.39;91.00
50550;BME280;36505;52.512;13.460;2023-01-27T06:53:56;101831.88;;;1.45;91.15
50550;BME280;36505;52.512;13.460;2023-01-27T06:56:21;101821.41;;;1.42;91.36
50550;BME280;36505;52.512;13.460;2023-01-27T06:58:47;101816.53;;;1.45;91.61
50550;BME280;36505;52.512;13.460;2023-01-27T07:01:12;101820.72;;;1.40;91.38
50550;BME280;36505;52.512;13.460;2023-01-27T07:03:37;101828.97;;;1.38;91.45
50550;BME280;36505;52.512;13.460;2023-01-27T07:06:03;101820.41;;;1.43;91.92
50550;BME280;36505;52.512;13.460;2023-01-27T07:08:28;101829.31;;;1.43;91.91
50550;BME280;36505;52.512;13.460;2023-01-27T07:10:53;101830.34;;;1.42;91.69
50550;BME280;36505;52.512;13.460;2023-01-27T07:13:19;101833.72;;;1.44;91.69
50550;BME280;36505;52.512;13.460;2023-01-27T07:15:44;101835.41;;;1.45;91.88
50550;BME280;36505;52.512;13.460;2023-01-27T07:18:11;101832.56;;;1.47;92.40
50550;BME280;36505;52.512;13.460;2023-01-27T07:20:39;101833.28;;;1.49;92.12
50550;BME280;36505;52.512;13.460;2023-01-27T07:23:05;101833.56;;;1.46;92.31
50550;BME280;36505;52.512;13.460;2023-01-27T07:25:33;101835.91;;;1.41;92.33
50550;BME280;36505;52.512;13.460;2023-01-27T07:28:00;101845.38;;;1.45;92.81
50550;BME280;36505;52.512;13.460;2023-01-27T07:30:27;101844.38;;;1.46;92.80
50550;BME280;36505;52.512;13.460;2023-01-27T07:32:52;101840.13;;;1.43;92.87
50550;BME280;36505;52.512;13.460;2023-01-27T07:35:20;101847.06;;;1.46;93.47
50550;BME280;36505;52.512;13.460;2023-01-27T07:37:45;101846.78;;;1.49;93.54
50550;BME280;36505;52.512;13.460;2023-01-27T07:40:11;101845.91;;;1.48;93.88
50550;BME280;36505;52.512;13.460;2023-01-27T07:42:38;101857.06;;;1.53;94.08
50550;BME280;36505;52.512;13.460;2023-01-27T07:45:03;101857.78;;;1.55;93.68
50550;BME280;36505;52.512;13.460;2023-01-27T07:47:29;101856.94;;;1.55;94.03
50550;BME280;36505;52.512;13.460;2023-01-27T07:49:55;101853.38;;;1.54;93.95
50550;BME280;36505;52.512;13.460;2023-01-27T07:52:20;101861.13;;;1.57;94.32
50550;BME280;36505;52.512;13.460;2023-01-27T07:54:45;101861.47;;;1.54;94.02
50550;BME280;36505;52.512;13.460;2023-01-27T07:57:11;101861.13;;;1.57;94.68
50550;BME280;36505;52.512;13.460;2023-01-27T07:59:37;101863.69;;;1.59;94.75
50550;BME280;36505;52.512;13.460;2023-01-27T08:02:02;101860.84;;;1.61;95.02
50550;BME280;36505;52.512;13.460;2023-01-27T08:04:27;101855.06;;;1.55;94.99
50550;BME280;36505;52.512;13.460;2023-01-27T08:06:53;101866.59;;;1.66;95.26
50550;BME280;36505;52.512;13.460;2023-01-27T08:09:18;101857.72;;;1.73;95.26
50550;BME280;36505;52.512;13.460;2023-01-27T08:11:43;101865.16;;;1.79;95.48
50550;BME280;36505;52.512;13.460;2023-01-27T08:14:09;101858.81;;;1.88;95.22
50550;BME280;36505;52.512;13.460;2023-01-27T08:16:34;101862.50;;;1.87;95.16
50550;BME280;36505;52.512;13.460;2023-01-27T08:18:59;101863.41;;;1.96;95.47
50550;BME280;36505;52.512;13.460;2023-01-27T08:21:25;101867.59;;;1.90;95.20
50550;BME280;36505;52.512;13.460;2023-01-27T08:23:56;101859.53;;;1.98;95.25
50550;BME280;36505;52.512;13.460;2023-01-27T08:26:21;101868.66;;;1.97;95.42
50550;BME280;36505;52.512;13.460;2023-01-27T08:28:47;101874.88;;;1.98;95.83
50550;BME280;36505;52.512;13.460;2023-01-27T08:31:14;101859.72;;;1.97;95.67
50550;BME280;36505;52.512;13.460;2023-01-27T08:33:41;101876.63;;;2.07;95.48
50550;BME280;36505;52.512;13.460;2023-01-27T08:36:10;101877.97;;;2.03;95.56
50550;BME280;36505;52.512;13.460;2023-01-27T08:38:36;101884.56;;;2.09;95.73
50550;BME280;36505;52.512;13.460;2023-01-27T08:41:06;101879.88;;;2.11;95.51
50550;BME280;36505;52.512;13.460;2023-01-27T08:43:32;101882.38;;;2.12;95.55
50550;BME280;36505;52.512;13.460;2023-01-27T08:45:58;101886.13;;;2.19;95.64
50550;BME280;36505;52.512;13.460;2023-01-27T08:48:28;101883.28;;;2.21;95.70
50550;BME280;36505;52.512;13.460;2023-01-27T08:50:55;101892.13;;;2.31;95.45
50550;BME280;36505;52.512;13.460;2023-01-27T08:53:21;101891.22;;;2.22;95.27
50550;BME280;36505;52.512;13.460;2023-01-27T08:55:47;101887.88;;;2.28;95.53
50550;BME280;36505;52.512;13.460;2023-01-27T08:58:13;101897.19;;;2.34;95.13
50550;BME280;36505;52.512;13.460;2023-01-27T09:00:38;101905.94;;;2.28;94.94
50550;BME280;36505;52.512;13.460;2023-01-27T09:03:03;101902.03;;;2.22;95.22
50550;BME280;36505;52.512;13.460;2023-01-27T09:05:29;101898.47;;;2.22;95.55
50550;BME280;36505;52.512;13.460;2023-01-27T09:07:54;101901.53;;;2.27;95.70
50550;BME280;36505;52.512;13.460;2023-01-27T09:10:20;101904.94;;;2.29;95.53
50550;BME280;36505;52.512;13.460;2023-01-27T09:12:45;101905.09;;;2.27;95.88
50550;BME280;36505;52.512;13.460;2023-01-27T09:15:12;101906.13;;;2.34;95.66
50550;BME280;36505;52.512;13.460;2023-01-27T09:17:37;101907.53;;;2.38;95.51
50550;BME280;36505;52.512;13.460;2023-01-27T09:20:03;101905.31;;;2.42;95.73
50550;BME280;36505;52.512;13.460;2023-01-27T09:22:29;101916.50;;;2.47;95.88
50550;BME280;36505;52.512;13.460;2023-01-27T09:24:54;101914.78;;;2.46;95.09
50550;BME280;36505;52.512;13.460;2023-01-27T09:27:19;101927.31;;;2.47;95.38
50550;BME280;36505;52.512;13.460;2023-01-27T09:29:45;101927.09;;;2.41;95.45
50550;BME280;36505;52.512;13.460;2023-01-27T09:32:10;101931.72;;;2.48;95.35
50550;BME280;36505;52.512;13.460;2023-01-27T09:34:39;101921.50;;;2.34;95.33
50550;BME280;36505;52.512;13.460;2023-01-27T09:37:09;101926.59;;;2.37;95.39
50550;BME280;36505;52.512;13.460;2023-01-27T09:39:45;101922.19;;;2.36;95.84
50550;BME280;36505;52.512;13.460;2023-01-27T09:48:18;101940.31;;;2.44;96.31
50550;BME280;36505;52.512;13.460;2023-01-27T09:50:54;101944.38;;;2.48;96.38
50550;BME280;36505;52.512;13.460;2023-01-27T09:53:43;101937.00;;;2.58;96.08
50550;BME280;36505;52.512;13.460;2023-01-27T09:59:18;101937.84;;;2.58;95.66
50550;BME280;36505;52.512;13.460;2023-01-27T10:02:29;101932.72;;;2.47;96.28
50550;BME280;36505;52.512;13.460;2023-01-27T10:13:08;101942.03;;;2.53;95.62
50550;BME280;36505;52.512;13.460;2023-01-27T10:18:28;101940.81;;;2.47;95.47
50550;BME280;36505;52.512;13.460;2023-01-27T10:21:14;101947.78;;;2.50;95.76
50550;BME280;36505;52.512;13.460;2023-01-27T10:26:51;101948.09;;;2.47;95.15
50550;BME280;36505;52.512;13.460;2023-01-27T10:29:51;101945.63;;;2.61;94.38
50550;BME280;36505;52.512;13.460;2023-01-27T10:32:23;101952.22;;;2.59;94.28
50550;BME280;36505;52.512;13.460;2023-01-27T10:35:06;101957.44;;;2.60;93.96
50550;BME280;36505;52.512;13.460;2023-01-27T10:40:13;101953.56;;;2.63;93.69
50550;BME280;36505;52.512;13.460;2023-01-27T10:42:52;101950.38;;;2.67;93.99
50550;BME280;36505;52.512;13.460;2023-01-27T10:45:33;101959.81;;;2.63;93.76
50550;BME280;36505;52.512;13.460;2023-01-27T10:51:02;101955.59;;;2.61;93.45
50550;BME280;36505;52.512;13.460;2023-01-27T10:54:00;101955.28;;;2.64;93.34
50550;BME280;36505;52.512;13.460;2023-01-27T11:01:52;101953.75;;;2.69;92.98
50550;BME280;36505;52.512;13.460;2023-01-27T11:06:48;101961.22;;;2.75;92.40
50550;BME280;36505;52.512;13.460;2023-01-27T11:09:24;101954.81;;;2.76;92.92
50550;BME280;36505;52.512;13.460;2023-01-27T11:11:51;101961.41;;;2.82;92.57
50550;BME280;36505;52.512;13.460;2023-01-27T11:14:29;101961.09;;;2.85;92.05
50550;BME280;36505;52.512;13.460;2023-01-27T11:19:43;101953.63;;;2.87;90.17
50550;BME280;36505;52.512;13.460;2023-01-27T11:22:19;101961.59;;;2.89;90.43
50550;BME280;36505;52.512;13.460;2023-01-27T11:24:56;101958.19;;;2.87;90.34
50550;BME280;36505;52.512;13.460;2023-01-27T11:27:33;101951.44;;;2.83;90.58
50550;BME280;36505;52.512;13.460;2023-01-27T11:30:11;101952.78;;;2.87;91.36
50550;BME280;36505;52.512;13.460;2023-01-27T11:32:51;101944.00;;;2.85;90.39
50550;BME280;36505;52.512;13.460;2023-01-27T11:35:18;101961.44;;;2.90;90.00
50550;BME280;36505;52.512;13.460;2023-01-27T11:37:48;101948.06;;;2.89;89.82
50550;BME280;36505;52.512;13.460;2023-01-27T11:40:33;101949.25;;;2.86;90.49
50550;BME280;36505;52.512;13.460;2023-01-27T11:43:00;101942.69;;;2.97;90.67
50550;BME280;36505;52.512;13.460;2023-01-27T11:45:29;101941.31;;;3.01;90.54
50550;BME280;36505;52.512;13.460;2023-01-27T11:47:57;101938.16;;;3.13;90.07
50550;BME280;36505;52.512;13.460;2023-01-27T11:50:29;101946.75;;;3.01;89.80
50550;BME280;36505;52.512;13.460;2023-01-27T11:55:34;101947.13;;;3.06;89.88
50550;BME280;36505;52.512;13.460;2023-01-27T12:00:44;101941.69;;;2.98;89.43
50550;BME280;36505;52.512;13.460;2023-01-27T12:06:17;101944.22;;;3.07;89.08
50550;BME280;36505;52.512;13.460;2023-01-27T12:08:48;101932.56;;;3.07;88.53
50550;BME280;36505;52.512;13.460;2023-01-27T12:11:24;101948.47;;;3.18;88.06
50550;BME280;36505;52.512;13.460;2023-01-27T12:13:56;101952.88;;;3.19;87.84
50550;BME280;36505;52.512;13.460;2023-01-27T12:16:26;101950.19;;;3.27;87.51
50550;BME280;36505;52.512;13.460;2023-01-27T12:18:59;101946.47;;;3.20;87.72
50550;BME280;36505;52.512;13.460;2023-01-27T12:21:37;101947.78;;;3.16;88.60
50550;BME280;36505;52.512;13.460;2023-01-27T12:24:05;101950.84;;;3.13;88.66
50550;BME280;36505;52.512;13.460;2023-01-27T12:26:39;101948.78;;;3.15;87.63
50550;BME280;36505;52.512;13.460;2023-01-27T12:29:25;101949.66;;;3.15;87.36
50550;BME280;36505;52.512;13.460;2023-01-27T12:31:53;101951.50;;;3.07;87.65
50550;BME280;36505;52.512;13.460;2023-01-27T12:34:30;101945.91;;;3.08;88.84
50550;BME280;36505;52.512;13.460;2023-01-27T12:36:58;101948.78;;;2.99;89.07
50550;BME280;36505;52.512;13.460;2023-01-27T12:41:53;101944.72;;;3.03;89.39
50550;BME280;36505;52.512;13.460;2023-01-27T12:44:19;101944.41;;;3.06;89.80
50550;BME280;36505;52.512;13.460;2023-01-27T12:47:19;101943.41;;;3.07;89.92
50550;BME280;36505;52.512;13.460;2023-01-27T12:49:48;101941.34;;;3.09;89.43
50550;BME280;36505;52.512;13.460;2023-01-27T12:52:20;101947.13;;;3.06;89.20
50550;BME280;36505;52.512;13.460;2023-01-27T12:54:46;101948.63;;;3.08;89.11
50550;BME280;36505;52.512;13.460;2023-01-27T12:57:19;101946.91;;;3.07;88.65
50550;BME280;36505;52.512;13.460;2023-01-27T12:59:50;101955.53;;;3.03;87.83
50550;BME280;36505;52.512;13.460;2023-01-27T13:02:22;101957.56;;;2.93;88.06
50550;BME280;36505;52.512;13.460;2023-01-27T13:05:04;101963.13;;;2.91;88.26
50550;BME280;36505;52.512;13.460;2023-01-27T13:07:43;101959.06;;;2.87;88.49
50550;BME280;36505;52.512;13.460;2023-01-27T13:12:51;101963.59;;;2.78;88.22
50550;BME280;36505;52.512;13.460;2023-01-27T13:15:20;101964.28;;;2.81;87.96
50550;BME280;36505;52.512;13.460;2023-01-27T13:17:55;101970.53;;;2.81;88.16
50550;BME280;36505;52.512;13.460;2023-01-27T13:20:28;101968.50;;;2.83;87.93
50550;BME280;36505;52.512;13.460;2023-01-27T13:23:28;101970.53;;;2.81;88.12
50550;BME280;36505;52.512;13.460;2023-01-27T13:31:11;101961.91;;;2.77;87.71
50550;BME280;36505;52.512;13.460;2023-01-27T13:33:45;101958.34;;;2.77;87.24
50550;BME280;36505;52.512;13.460;2023-01-27T13:36:31;101960.06;;;2.78;86.72
50550;BME280;36505;52.512;13.460;2023-01-27T13:41:42;101958.66;;;2.66;87.33
50550;BME280;36505;52.512;13.460;2023-01-27T13:44:31;101961.88;;;2.69;86.47
50550;BME280;36505;52.512;13.460;2023-01-27T13:47:03;101962.38;;;2.65;85.89
50550;BME280;36505;52.512;13.460;2023-01-27T13:51:54;101974.34;;;2.62;86.40
50550;BME280;36505;52.512;13.460;2023-01-27T13:54:20;101974.19;;;2.64;86.16
50550;BME280;36505;52.512;13.460;2023-01-27T13:57:11;101976.22;;;2.62;85.84
50550;BME280;36505;52.512;13.460;2023-01-27T14:05:37;101971.53;;;2.72;85.22
50550;BME280;36505;52.512;13.460;2023-01-27T14:10:40;101980.81;;;2.69;84.37
50550;BME280;36505;52.512;13.460;2023-01-27T14:18:45;101989.22;;;2.66;83.59
50550;BME280;36505;52.512;13.460;2023-01-27T14:21:37;101989.97;;;2.76;83.38